createdAt,value
2018-11-21T00:02:43.688Z,31.10
2018-11-21T00:05:31.550Z,34.77
2018-11-21T00:08:19.340Z,33.67
2018-11-21T00:11:07.320Z,33.97
2018-11-21T00:13:55.113Z,34.13
2018-11-21T00:19:36.568Z,33.13
2018-11-21T00:22:24.400Z,36.70
2018-11-21T00:25:12.193Z,39.23
2018-11-21T00:28:00.026Z,35.87
2018-11-21T00:30:47.808Z,34.40
2018-11-21T00:36:29.137Z,34.07
2018-11-21T00:42:10.679Z,34.70
2018-11-21T00:47:52.436Z,37.00
2018-11-21T00:53:33.937Z,40.53
2018-11-21T00:59:15.875Z,38.50
2018-11-21T01:02:03.953Z,37.30
2018-11-21T01:04:51.765Z,35.87
2018-11-21T01:07:39.604Z,33.70
2018-11-21T01:10:27.396Z,36.73
2018-11-21T01:16:09.125Z,33.40
2018-11-21T01:18:57.007Z,35.70
2018-11-21T01:21:44.800Z,39.10
2018-11-21T01:24:32.690Z,35.77
2018-11-21T01:27:20.505Z,36.27
2018-11-21T01:30:08.800Z,34.63
2018-11-21T01:32:56.582Z,36.17
2018-11-21T01:35:44.440Z,33.47
2018-11-21T01:38:32.235Z,34.80
2018-11-21T01:41:20.107Z,36.50
2018-11-21T01:44:08.415Z,36.17
2018-11-21T01:46:56.235Z,34.07
2018-11-21T01:49:44.029Z,33.53
2018-11-21T01:52:31.859Z,31.90
2018-11-21T01:55:19.651Z,35.10
2018-11-21T02:01:01.701Z,32.73
2018-11-21T02:03:49.552Z,33.43
2018-11-21T02:06:37.345Z,32.07
2018-11-21T02:09:25.192Z,32.33
2018-11-21T02:12:12.984Z,33.37
2018-11-21T02:17:54.842Z,36.80
2018-11-21T02:20:42.700Z,33.70
2018-11-21T02:23:30.493Z,36.17
2018-11-21T02:26:18.308Z,34.13
2018-11-21T02:29:06.184Z,32.30
2018-11-21T02:34:47.516Z,33.87
2018-11-21T02:37:35.501Z,32.90
2018-11-21T02:40:23.317Z,33.50
2018-11-21T02:43:11.153Z,36.63
2018-11-21T02:45:58.953Z,32.20
2018-11-21T02:51:40.934Z,35.17
2018-11-21T02:57:24.138Z,34.57
2018-11-21T03:00:31.324Z,34.63
2018-11-21T03:03:19.129Z,34.40
2018-11-21T03:09:00.419Z,35.50
2018-11-21T03:11:48.269Z,34.80
2018-11-21T03:17:46.349Z,31.47
2018-11-21T03:20:34.135Z,32.67
2018-11-21T03:26:15.168Z,34.00
2018-11-21T03:29:03.000Z,34.50
2018-11-21T03:31:50.978Z,32.57
2018-11-21T03:34:38.772Z,32.37
2018-11-21T03:37:26.605Z,32.10
2018-11-21T03:43:07.709Z,31.83
2018-11-21T03:45:55.556Z,31.63
2018-11-21T03:48:43.335Z,28.27
2018-11-21T03:51:31.184Z,31.80
2018-11-21T03:54:18.994Z,32.03
2018-11-21T03:59:59.892Z,29.10
2018-11-21T04:02:47.879Z,28.73
2018-11-21T04:05:35.693Z,29.83
2018-11-21T04:08:23.519Z,27.90
2018-11-21T04:11:11.331Z,29.43
2018-11-21T04:16:52.320Z,28.00
2018-11-21T04:19:41.075Z,30.60
2018-11-21T04:22:28.882Z,30.60
2018-11-21T04:25:16.716Z,29.17
2018-11-21T04:28:04.785Z,28.20
2018-11-21T04:33:45.671Z,28.80
2018-11-21T04:36:33.482Z,28.27
2018-11-21T04:39:21.266Z,27.90
2018-11-21T04:42:09.128Z,27.33
2018-11-21T04:44:56.929Z,25.70
2018-11-21T04:50:38.874Z,25.30
2018-11-21T04:53:28.089Z,22.00
2018-11-21T04:56:14.913Z,21.80
2018-11-21T04:59:02.770Z,21.30
2018-11-21T05:01:50.556Z,21.33
2018-11-21T05:04:38.466Z,25.40
2018-11-21T05:07:26.399Z,24.10
2018-11-21T05:10:14.235Z,21.53
2018-11-21T05:13:02.068Z,23.77
2018-11-21T05:18:43.090Z,20.60
2018-11-21T05:24:24.922Z,20.47
2018-11-21T05:27:12.837Z,21.23
2018-11-21T05:30:00.625Z,19.90
2018-11-21T05:32:48.460Z,21.23
2018-11-21T05:35:36.269Z,21.30
2018-11-21T05:41:18.033Z,20.00
2018-11-21T05:44:05.899Z,20.30
2018-11-21T05:46:53.832Z,21.20
2018-11-21T05:49:41.564Z,20.40
2018-11-21T05:52:29.351Z,19.03
2018-11-21T05:58:10.665Z,20.93
2018-11-21T06:00:58.499Z,19.50
2018-11-21T06:03:46.292Z,20.87
2018-11-21T06:06:34.197Z,21.47
2018-11-21T06:09:22.026Z,19.27
2018-11-21T06:12:09.882Z,21.07
2018-11-21T06:14:57.899Z,21.03
2018-11-21T06:20:39.800Z,25.07
2018-11-21T06:23:27.683Z,22.00
2018-11-21T06:26:15.490Z,23.50
2018-11-21T06:31:57.674Z,20.67
2018-11-21T06:37:39.858Z,20.07
2018-11-21T06:40:27.709Z,22.43
2018-11-21T06:43:15.664Z,24.40
2018-11-21T06:46:03.478Z,26.53
2018-11-21T06:48:51.330Z,24.80
2018-11-21T06:51:39.110Z,23.27
2018-11-21T06:54:26.980Z,25.20
2018-11-21T06:57:14.833Z,28.03
2018-11-21T07:00:02.840Z,27.37
2018-11-21T07:02:50.653Z,28.50
2018-11-21T07:08:31.974Z,24.80
2018-11-21T07:11:19.839Z,22.90
2018-11-21T07:14:07.926Z,21.43
2018-11-21T07:16:55.690Z,25.20
2018-11-21T07:19:43.488Z,24.00
2018-11-21T07:25:25.759Z,27.27
2018-11-21T07:28:13.645Z,29.40
2018-11-21T07:31:01.458Z,27.40
2018-11-21T07:33:49.327Z,27.20
2018-11-21T07:36:37.111Z,29.70
2018-11-21T07:42:18.965Z,26.77
2018-11-21T07:45:08.112Z,26.33
2018-11-21T07:47:55.938Z,24.23
2018-11-21T07:50:43.807Z,26.77
2018-11-21T07:53:31.604Z,24.77
2018-11-21T07:56:38.778Z,26.43
2018-11-21T07:59:26.574Z,28.60
2018-11-21T08:02:18.208Z,27.50
2018-11-21T08:11:48.427Z,26.63
2018-11-21T08:14:55.846Z,24.40
2018-11-21T08:18:02.756Z,24.10
2018-11-21T08:21:09.706Z,24.70
2018-11-21T08:24:16.645Z,24.17
2018-11-21T08:27:23.573Z,22.50
2018-11-21T08:30:11.383Z,24.20
2018-11-21T08:35:53.381Z,27.63
2018-11-21T08:41:34.788Z,27.73
2018-11-21T08:44:22.694Z,25.97
2018-11-21T08:47:10.514Z,29.50
2018-11-21T08:52:51.445Z,25.70
2018-11-21T08:58:33.114Z,23.27
2018-11-21T09:01:21.136Z,24.53
2018-11-21T09:04:08.891Z,27.60
2018-11-21T09:09:50.784Z,28.00
2018-11-21T09:15:31.642Z,24.53
2018-11-21T09:21:13.103Z,24.70
2018-11-21T09:26:55.557Z,24.27
2018-11-21T09:29:43.451Z,26.07
2018-11-21T09:32:31.625Z,23.57
2018-11-21T09:35:19.930Z,24.37
2018-11-21T09:38:07.743Z,25.40
2018-11-21T09:43:48.865Z,23.37
2018-11-21T09:46:36.758Z,23.20
2018-11-21T09:49:24.567Z,23.17
2018-11-21T09:52:12.476Z,26.30
2018-11-21T09:55:00.271Z,27.10
2018-11-21T10:01:01.094Z,24.40
2018-11-21T10:03:48.977Z,23.33
2018-11-21T10:06:37.867Z,23.87
2018-11-21T10:09:28.742Z,25.93
2018-11-21T10:12:16.578Z,23.57
2018-11-21T10:15:04.447Z,24.10
2018-11-21T10:17:52.252Z,24.63
2018-11-21T10:20:40.131Z,25.70
2018-11-21T10:23:27.951Z,27.73
2018-11-21T10:26:15.803Z,22.00
2018-11-21T10:29:03.635Z,25.50
2018-11-21T10:34:44.771Z,23.63
2018-11-21T10:37:32.647Z,25.57
2018-11-21T10:40:20.471Z,23.17
2018-11-21T10:46:01.696Z,27.07
2018-11-21T10:48:49.575Z,26.53
2018-11-21T10:51:37.377Z,27.43
2018-11-21T10:54:25.261Z,29.20
2018-11-21T10:57:13.068Z,25.60
2018-11-21T11:03:13.678Z,24.60
2018-11-21T11:06:20.621Z,25.40
2018-11-21T11:09:28.456Z,28.30
2018-11-21T11:12:35.446Z,22.07
2018-11-21T11:15:33.798Z,26.53
2018-11-21T11:18:40.864Z,27.40
2018-11-21T11:21:47.755Z,24.23
2018-11-21T11:24:54.744Z,24.37
2018-11-21T11:28:01.658Z,24.10
2018-11-21T11:31:08.597Z,23.30
2018-11-21T11:34:15.492Z,20.40
2018-11-21T11:37:23.481Z,20.43
2018-11-21T11:40:30.425Z,20.10
2018-11-21T11:43:37.397Z,21.90
2018-11-21T11:46:44.357Z,24.33
2018-11-21T11:49:51.283Z,20.17
2018-11-21T11:52:58.224Z,21.80
2018-11-21T11:59:16.315Z,23.17
2018-11-21T12:02:23.213Z,21.40
2018-11-21T12:05:30.102Z,21.80
2018-11-21T12:08:25.582Z,22.87
2018-11-21T12:11:32.387Z,21.20
2018-11-21T12:14:39.434Z,21.97
2018-11-21T12:17:46.342Z,20.57
2018-11-21T12:20:53.314Z,24.40
2018-11-21T12:24:00.235Z,30.20
2018-11-21T12:27:07.237Z,38.83
2018-11-21T12:30:14.159Z,40.20
2018-11-21T12:33:21.320Z,29.67
2018-11-21T12:36:28.219Z,25.27
2018-11-21T12:39:26.784Z,28.43
2018-11-21T12:42:33.733Z,30.70
2018-11-21T12:45:40.736Z,26.70
2018-11-21T12:48:47.641Z,24.10
2018-11-21T12:51:55.277Z,22.87
2018-11-21T12:55:02.205Z,20.70
2018-11-21T12:58:09.196Z,29.90
2018-11-21T13:01:16.075Z,61.70
2018-11-21T13:07:27.590Z,35.60
2018-11-21T13:13:46.873Z,38.13
2018-11-21T13:16:53.868Z,37.20
2018-11-21T13:20:00.813Z,47.17
2018-11-21T13:23:07.761Z,22.30
2018-11-21T13:26:14.657Z,23.30
2018-11-21T13:29:21.666Z,18.30
2018-11-21T13:32:28.587Z,19.33
2018-11-21T13:35:35.514Z,18.60
2018-11-21T13:38:42.422Z,20.93
2018-11-21T13:41:49.506Z,19.07
2018-11-21T13:44:56.414Z,17.87
2018-11-21T13:48:03.400Z,18.37
2018-11-21T13:51:10.293Z,17.97
2018-11-21T13:54:17.561Z,18.90
2018-11-21T13:56:47.026Z,18.97
2018-11-21T13:59:34.849Z,20.23
2018-11-21T14:02:22.651Z,21.00
2018-11-21T14:08:04.103Z,18.30
2018-11-21T14:10:51.930Z,19.20
2018-11-21T14:13:39.732Z,16.40
2018-11-21T14:16:27.628Z,20.07
2018-11-21T14:19:15.774Z,17.73
2018-11-21T14:22:03.681Z,18.93
2018-11-21T14:24:51.510Z,16.83
2018-11-21T14:27:39.347Z,17.10
2018-11-21T14:30:27.153Z,14.63
2018-11-21T14:33:15.019Z,16.33
2018-11-21T14:36:02.860Z,15.30
2018-11-21T14:38:50.741Z,14.30
2018-11-21T14:41:39.337Z,16.03
2018-11-21T14:44:27.178Z,15.70
2018-11-21T14:47:15.906Z,14.10
2018-11-21T14:50:06.568Z,15.07
2018-11-21T14:52:54.345Z,13.77
2018-11-21T14:58:35.797Z,14.73
2018-11-21T15:01:23.626Z,15.00
2018-11-21T15:04:11.399Z,14.03
2018-11-21T15:06:59.317Z,13.60
2018-11-21T15:09:47.104Z,12.80
2018-11-21T15:12:35.150Z,13.73
2018-11-21T15:15:22.999Z,13.47
2018-11-21T15:18:10.865Z,14.10
2018-11-21T15:20:58.680Z,12.80
2018-11-21T15:26:40.413Z,13.67
2018-11-21T15:32:21.757Z,12.80
2018-11-21T15:38:03.149Z,13.00
2018-11-21T15:40:51.135Z,12.50
2018-11-21T15:43:38.961Z,15.03
2018-11-21T15:46:26.823Z,16.53
2018-11-21T15:49:33.733Z,16.00
2018-11-21T15:52:21.591Z,14.63
2018-11-21T15:55:09.863Z,14.33
2018-11-21T15:57:57.696Z,14.80
2018-11-21T16:00:45.509Z,15.33
2018-11-21T16:03:33.445Z,12.70
2018-11-21T16:06:21.247Z,13.87
2018-11-21T16:12:03.323Z,14.97
2018-11-21T16:14:51.458Z,15.20
2018-11-21T16:17:39.381Z,14.57
2018-11-21T16:20:27.304Z,13.20
2018-11-21T16:23:15.120Z,14.57
2018-11-21T16:26:03.085Z,15.03
2018-11-21T16:28:50.917Z,15.13
2018-11-21T16:31:38.799Z,14.43
2018-11-21T16:34:26.608Z,13.70
2018-11-21T16:40:09.263Z,13.80
2018-11-21T16:42:58.319Z,12.20
2018-11-21T16:45:47.971Z,16.37
2018-11-21T16:51:29.635Z,12.30
2018-11-21T16:57:10.608Z,14.20
2018-11-21T16:59:58.476Z,13.77
2018-11-21T17:02:46.307Z,18.40
2018-11-21T17:05:34.155Z,19.50
2018-11-21T17:08:22.015Z,26.10
2018-11-21T17:11:09.880Z,24.37
2018-11-21T17:13:57.676Z,21.17
2018-11-21T17:16:45.637Z,22.73
2018-11-21T17:19:33.457Z,22.10
2018-11-21T17:22:21.364Z,22.27
2018-11-21T17:25:11.046Z,21.20
2018-11-21T17:27:58.974Z,22.30
2018-11-21T17:30:46.887Z,19.67
2018-11-21T17:33:34.790Z,21.37
2018-11-21T17:36:22.611Z,21.93
2018-11-21T17:39:11.546Z,21.53
2018-11-21T17:41:59.427Z,22.90
2018-11-21T17:44:47.304Z,25.20
2018-11-21T17:47:35.276Z,22.20
2018-11-21T17:50:24.123Z,22.10
2018-11-21T17:53:11.943Z,22.80
2018-11-21T17:56:02.000Z,19.97
2018-11-21T17:58:49.829Z,23.20
2018-11-21T18:01:37.750Z,22.37
2018-11-21T18:04:25.609Z,22.13
2018-11-21T18:07:13.556Z,23.77
2018-11-21T18:10:01.431Z,22.70
2018-11-21T18:12:49.432Z,23.50
2018-11-21T18:15:37.325Z,24.10
2018-11-21T18:21:19.836Z,24.77
2018-11-21T18:24:06.880Z,24.30
2018-11-21T18:26:54.802Z,28.23
2018-11-21T18:29:42.737Z,29.13
2018-11-21T18:32:30.613Z,25.57
2018-11-21T18:35:22.973Z,24.50
2018-11-21T18:38:04.016Z,20.60
2018-11-21T18:40:44.848Z,22.30
2018-11-21T18:43:25.989Z,21.77
2018-11-21T18:46:06.460Z,23.00
2018-11-21T18:48:47.174Z,22.10
2018-11-21T18:51:28.701Z,24.33
2018-11-21T18:54:09.778Z,24.73
2018-11-21T18:56:50.213Z,22.60
2018-11-21T18:59:30.799Z,23.53
2018-11-21T19:02:12.156Z,22.37
2018-11-21T19:04:53.296Z,25.43
2018-11-21T19:07:35.833Z,22.07
2018-11-21T19:10:17.001Z,25.13
2018-11-21T19:12:58.344Z,27.47
2018-11-21T19:15:39.456Z,24.80
2018-11-21T19:18:20.780Z,25.60
2018-11-21T19:21:01.582Z,24.50
2018-11-21T19:23:44.018Z,26.80
2018-11-21T19:26:25.480Z,24.87
2018-11-21T19:29:06.349Z,22.90
2018-11-21T19:31:47.016Z,24.97
2018-11-21T19:34:28.076Z,23.80
2018-11-21T19:37:08.514Z,23.17
2018-11-21T19:39:50.242Z,24.40
2018-11-21T19:42:30.760Z,23.70
2018-11-21T19:45:11.953Z,24.00
2018-11-21T19:47:52.511Z,23.83
2018-11-21T19:50:33.756Z,22.10
2018-11-21T19:53:15.178Z,23.90
2018-11-21T19:55:56.380Z,24.20
2018-11-21T19:58:37.162Z,24.57
2018-11-21T20:01:18.363Z,23.00
2018-11-21T20:03:58.886Z,24.70
2018-11-21T20:06:40.180Z,22.27
